Home, Kansas
Current Conditions -  °F | °C
As of 3:55 AM on Sunday 23 Nov 2014 (Local Time) from KMYZ Reporting Station
Drizzle Drizzle  
Wind Chill: 52°   Ceiling: 500
Heat Index: 52°   Visibility: 7mi
Dew Point: 52°   Wind: 6mph
Humidity: 100%   Direction: 160°SSE
Pressure: 29.49"   Gusts: NA
Location:  39.84°N, 96.52°W
Report Text: KMYZ 230955Z AUTO 16005KT 7SM DZ OVC005 11/11 A2949 RMK AO2
Loading
Personal Weather Stations






























Interactive Weather Map New forecast layout! Learn more

10-Day Weather Forecast

Advertisements
Track Severe Weather on mobile